createdAt,value
2023-12-09T00:00:02.217Z,22.13
2023-12-09T00:03:06.861Z,22.15
2023-12-09T00:06:10.969Z,22.15
2023-12-09T00:09:15.425Z,22.11
2023-12-09T00:12:18.984Z,22.15
2023-12-09T00:15:23.677Z,22.14
2023-12-09T00:18:27.119Z,22.15
2023-12-09T00:21:30.540Z,22.15
2023-12-09T00:24:33.781Z,22.15
2023-12-09T00:27:37.230Z,22.15
2023-12-09T00:30:41.767Z,22.14
2023-12-09T00:33:45.162Z,22.11
2023-12-09T00:36:48.429Z,22.11
2023-12-09T00:39:51.649Z,22.14
2023-12-09T00:42:54.912Z,22.15
2023-12-09T00:45:59.561Z,22.15
2023-12-09T00:49:02.852Z,22.14
2023-12-09T00:52:07.733Z,22.14
2023-12-09T00:55:12.656Z,22.16
2023-12-09T00:58:17.458Z,22.13
2023-12-09T01:01:22.039Z,22.15
2023-12-09T01:04:25.498Z,22.16
2023-12-09T01:07:28.872Z,22.14
2023-12-09T01:10:32.004Z,22.15
2023-12-09T01:13:35.212Z,22.13
2023-12-09T01:16:39.828Z,22.13
2023-12-09T01:19:43.160Z,22.15
2023-12-09T01:22:48.911Z,22.13
2023-12-09T01:25:52.094Z,22.14
2023-12-09T01:28:57.831Z,22.09
2023-12-09T01:32:02.389Z,22.13
2023-12-09T01:35:06.967Z,22.14
2023-12-09T01:38:10.702Z,22.13
2023-12-09T01:41:13.911Z,22.12
2023-12-09T01:44:18.583Z,22.10
2023-12-09T01:47:24.326Z,22.08
2023-12-09T01:50:28.522Z,22.06
2023-12-09T01:53:32.290Z,22.11
2023-12-09T01:56:35.523Z,22.07
2023-12-09T01:59:39.253Z,22.12
2023-12-09T02:02:43.822Z,22.11
2023-12-09T02:05:46.932Z,22.11
2023-12-09T02:08:50.868Z,22.09
2023-12-09T02:12:00.476Z,22.05
2023-12-09T02:15:08.764Z,22.09
2023-12-09T02:18:14.688Z,22.10
2023-12-09T02:21:18.701Z,22.07
2023-12-09T02:24:23.358Z,22.09
2023-12-09T02:27:33.750Z,22.10
2023-12-09T02:30:47.128Z,22.07
2023-12-09T02:33:51.101Z,22.07
2023-12-09T02:36:55.229Z,22.07
2023-12-09T02:40:02.056Z,22.08
2023-12-09T02:43:06.397Z,22.07
2023-12-09T02:46:13.696Z,22.06
2023-12-09T02:49:17.124Z,22.04
2023-12-09T02:52:20.665Z,22.00
2023-12-09T02:55:25.383Z,22.04
2023-12-09T02:58:28.623Z,22.06
2023-12-09T03:01:31.718Z,21.94
2023-12-09T03:04:35.383Z,22.04
2023-12-09T03:07:38.611Z,22.07
2023-12-09T03:10:43.189Z,22.02
2023-12-09T03:13:46.459Z,22.04
2023-12-09T03:16:49.639Z,22.02
2023-12-09T03:19:52.996Z,22.02
2023-12-09T03:22:56.184Z,22.05
2023-12-09T03:26:00.726Z,22.01
2023-12-09T03:29:03.902Z,22.04
2023-12-09T03:32:07.213Z,21.94
2023-12-09T03:35:13.603Z,22.04
2023-12-09T03:38:16.751Z,21.88
2023-12-09T03:41:24.591Z,22.03
2023-12-09T03:44:29.027Z,22.03
2023-12-09T03:47:32.521Z,21.99
2023-12-09T03:50:35.616Z,22.04
2023-12-09T03:53:38.777Z,22.00
2023-12-09T03:56:43.364Z,22.02
2023-12-09T03:59:46.547Z,22.04
2023-12-09T04:02:49.691Z,22.03
2023-12-09T04:05:52.953Z,22.04
2023-12-09T04:08:56.198Z,22.03
2023-12-09T04:12:01.529Z,22.06
2023-12-09T04:15:05.183Z,22.12
2023-12-09T04:18:08.903Z,22.14
2023-12-09T04:21:12.163Z,22.16
2023-12-09T04:24:15.481Z,22.22
2023-12-09T04:27:20.315Z,22.18
2023-12-09T04:30:24.341Z,22.24
2023-12-09T04:33:27.466Z,22.23
2023-12-09T04:36:30.999Z,22.24
2023-12-09T04:39:34.327Z,22.25
2023-12-09T04:42:39.303Z,22.23
2023-12-09T04:45:42.530Z,22.24
2023-12-09T04:48:45.998Z,22.23
2023-12-09T04:51:49.351Z,22.25
2023-12-09T04:54:52.563Z,22.23
2023-12-09T04:57:58.668Z,22.23
2023-12-09T05:01:03.295Z,22.19
2023-12-09T05:04:06.670Z,22.26
2023-12-09T05:07:09.964Z,22.24
2023-12-09T05:10:13.664Z,22.24
2023-12-09T05:13:18.491Z,22.16
2023-12-09T05:16:21.605Z,22.26
2023-12-09T05:19:25.908Z,22.21
2023-12-09T05:22:29.298Z,22.24
2023-12-09T05:25:32.543Z,22.24
2023-12-09T05:28:37.402Z,22.26
2023-12-09T05:31:42.027Z,22.26
2023-12-09T05:34:45.309Z,22.24
2023-12-09T05:37:48.812Z,22.24
2023-12-09T05:40:51.991Z,22.23
2023-12-09T05:43:56.719Z,22.14
2023-12-09T05:46:59.873Z,22.22
2023-12-09T05:50:02.997Z,22.22
2023-12-09T05:53:06.180Z,22.24
2023-12-09T05:56:12.117Z,22.23
2023-12-09T05:59:16.991Z,22.24
2023-12-09T06:02:20.128Z,22.23
2023-12-09T06:05:26.584Z,22.25
2023-12-09T06:08:29.787Z,22.27
2023-12-09T06:11:33.256Z,22.10
2023-12-09T06:14:37.837Z,22.04
2023-12-09T06:17:40.955Z,21.99
2023-12-09T06:20:44.131Z,21.99
2023-12-09T06:23:49.108Z,21.96
2023-12-09T06:26:52.192Z,21.96
2023-12-09T06:29:56.872Z,22.05
2023-12-09T06:33:02.134Z,21.84
2023-12-09T06:36:06.079Z,21.82
2023-12-09T06:39:10.375Z,21.79
2023-12-09T06:42:13.698Z,21.77
2023-12-09T06:45:18.764Z,21.73
2023-12-09T06:48:22.987Z,21.75
2023-12-09T06:51:26.839Z,21.74
2023-12-09T06:54:29.956Z,21.73
2023-12-09T06:57:33.135Z,21.71
2023-12-09T07:00:38.755Z,21.70
2023-12-09T07:03:42.625Z,21.74
2023-12-09T07:06:45.912Z,21.72
2023-12-09T07:09:51.451Z,21.81
2023-12-09T07:12:54.738Z,21.77
2023-12-09T07:16:00.123Z,21.74
2023-12-09T07:19:03.725Z,21.78
2023-12-09T07:22:07.045Z,21.81
2023-12-09T07:25:10.696Z,21.81
2023-12-09T07:28:14.596Z,21.76
2023-12-09T07:31:20.137Z,21.77
2023-12-09T07:34:23.514Z,21.77
2023-12-09T07:37:27.186Z,21.75
2023-12-09T07:40:30.630Z,21.71
2023-12-09T07:43:34.149Z,21.75
2023-12-09T07:46:38.726Z,21.76
2023-12-09T07:49:44.052Z,21.78
2023-12-09T07:52:47.317Z,21.71
2023-12-09T07:55:50.445Z,21.72
2023-12-09T07:58:54.682Z,21.72
2023-12-09T08:01:59.266Z,21.71
2023-12-09T08:05:03.194Z,21.71
2023-12-09T08:08:07.820Z,21.75
2023-12-09T08:11:13.241Z,21.77
2023-12-09T08:14:16.442Z,21.75
2023-12-09T08:17:21.114Z,21.74
2023-12-09T08:20:24.501Z,21.78
2023-12-09T08:23:27.883Z,21.74
2023-12-09T08:26:31.576Z,21.73
2023-12-09T08:29:37.434Z,21.73
2023-12-09T08:32:43.124Z,21.76
2023-12-09T08:35:47.729Z,21.76
2023-12-09T08:38:53.138Z,21.74
2023-12-09T08:41:56.446Z,21.74
2023-12-09T08:44:59.758Z,21.73
2023-12-09T08:48:08.251Z,21.73
2023-12-09T08:51:11.658Z,21.74
2023-12-09T08:54:15.982Z,21.73
2023-12-09T08:57:20.020Z,21.74
2023-12-09T09:00:27.511Z,21.75
2023-12-09T09:03:32.170Z,21.74
2023-12-09T09:06:35.340Z,21.75
2023-12-09T09:09:40.962Z,21.75
2023-12-09T09:12:45.569Z,21.74
2023-12-09T09:15:51.311Z,21.75
2023-12-09T09:18:56.311Z,21.74
2023-12-09T09:22:00.657Z,21.73
2023-12-09T09:25:04.139Z,21.74
2023-12-09T09:28:08.152Z,21.73
2023-12-09T09:31:13.134Z,21.73
2023-12-09T09:34:17.764Z,21.71
2023-12-09T09:37:22.683Z,21.77
2023-12-09T09:40:26.013Z,21.74
2023-12-09T09:43:33.245Z,21.75
2023-12-09T09:46:40.288Z,21.72
2023-12-09T09:49:49.231Z,21.79
2023-12-09T09:52:55.196Z,21.79
2023-12-09T09:55:59.876Z,21.78
2023-12-09T09:59:04.876Z,21.86
2023-12-09T10:02:09.170Z,21.88
2023-12-09T10:05:14.277Z,21.88
2023-12-09T10:08:17.414Z,21.85
2023-12-09T10:11:20.562Z,21.84
2023-12-09T10:14:24.475Z,21.86
2023-12-09T10:17:28.476Z,21.88
2023-12-09T10:20:35.974Z,21.82
2023-12-09T10:23:39.370Z,21.99
2023-12-09T10:26:44.176Z,22.06
2023-12-09T10:29:48.088Z,22.11
2023-12-09T10:32:53.344Z,22.05
2023-12-09T10:35:58.983Z,22.08
2023-12-09T10:39:02.372Z,22.08
2023-12-09T10:42:06.532Z,21.47
2023-12-09T10:45:12.708Z,21.45
2023-12-09T10:48:16.479Z,21.56
2023-12-09T10:51:21.464Z,21.32
2023-12-09T10:54:25.047Z,21.44
2023-12-09T10:57:30.177Z,21.52
2023-12-09T11:00:37.753Z,21.59
2023-12-09T11:03:41.685Z,21.57
2023-12-09T11:06:48.565Z,21.49
2023-12-09T11:09:52.120Z,21.58
2023-12-09T11:12:55.625Z,21.66
2023-12-09T11:16:12.343Z,21.67
2023-12-09T11:19:18.267Z,21.70
2023-12-09T11:22:23.572Z,21.72
2023-12-09T11:25:29.056Z,21.73
2023-12-09T11:28:32.618Z,21.73
2023-12-09T11:31:40.896Z,21.74
2023-12-09T11:34:44.509Z,21.65
2023-12-09T11:37:51.538Z,21.81
2023-12-09T11:40:55.684Z,21.78
2023-12-09T11:44:00.248Z,21.81
2023-12-09T11:47:06.009Z,21.78
2023-12-09T11:50:10.307Z,21.80
2023-12-09T11:53:15.072Z,21.91
2023-12-09T11:56:18.637Z,22.05
2023-12-09T11:59:21.821Z,22.23
2023-12-09T12:02:25.295Z,22.28
2023-12-09T12:05:31.594Z,22.31
2023-12-09T12:08:36.667Z,22.18
2023-12-09T12:11:41.811Z,22.10
2023-12-09T12:14:45.143Z,22.16
2023-12-09T12:17:49.724Z,22.11
2023-12-09T12:20:53.165Z,22.05
2023-12-09T12:23:57.981Z,22.01
2023-12-09T12:27:01.614Z,22.10
2023-12-09T12:30:05.623Z,22.08
2023-12-09T12:33:09.066Z,22.12
2023-12-09T12:36:13.149Z,22.20
2023-12-09T12:39:18.591Z,22.16
2023-12-09T12:42:22.108Z,22.17
2023-12-09T12:45:28.569Z,22.10
2023-12-09T12:48:32.806Z,22.15
2023-12-09T12:51:36.558Z,22.13
2023-12-09T12:54:41.581Z,22.07
2023-12-09T12:57:45.579Z,22.19
2023-12-09T13:00:50.899Z,22.26
2023-12-09T13:03:54.713Z,22.20
2023-12-09T13:06:58.228Z,22.06
2023-12-09T13:10:06.471Z,21.94
2023-12-09T13:13:09.858Z,21.74
2023-12-09T13:16:13.150Z,21.81
2023-12-09T13:19:16.980Z,21.90
2023-12-09T13:22:20.232Z,21.76
2023-12-09T13:25:25.004Z,21.82
2023-12-09T13:28:28.952Z,21.80
2023-12-09T13:31:32.732Z,21.78
2023-12-09T13:34:37.023Z,21.79
2023-12-09T13:37:40.579Z,21.80
2023-12-09T13:40:47.661Z,21.78
2023-12-09T13:43:52.145Z,21.73
2023-12-09T13:46:55.357Z,21.75
2023-12-09T13:49:58.602Z,21.72
2023-12-09T13:53:02.382Z,21.85
2023-12-09T13:56:08.322Z,21.78
2023-12-09T13:59:11.616Z,21.79
2023-12-09T14:02:14.949Z,21.76
2023-12-09T14:05:18.498Z,21.81
2023-12-09T14:08:22.287Z,21.79
2023-12-09T14:11:28.628Z,21.75
2023-12-09T14:14:32.727Z,21.78
2023-12-09T14:17:36.217Z,21.78
2023-12-09T14:20:39.445Z,21.76
2023-12-09T14:23:43.141Z,21.76
2023-12-09T14:26:49.281Z,21.85
2023-12-09T14:29:52.877Z,21.95
2023-12-09T14:32:56.155Z,22.17
2023-12-09T14:35:59.460Z,22.03
2023-12-09T14:39:07.843Z,21.96
2023-12-09T14:42:12.742Z,21.95
2023-12-09T14:45:16.326Z,21.97
2023-12-09T14:48:20.292Z,22.04
2023-12-09T14:51:36.989Z,22.07
2023-12-09T14:54:46.476Z,22.07
2023-12-09T14:57:51.663Z,22.09
2023-12-09T15:00:55.465Z,22.10
2023-12-09T15:03:59.906Z,22.10
2023-12-09T15:07:03.696Z,22.03
2023-12-09T15:10:08.164Z,22.08
2023-12-09T15:13:12.931Z,22.10
2023-12-09T15:16:16.374Z,22.10
2023-12-09T15:19:19.953Z,22.09
2023-12-09T15:22:23.939Z,22.10
2023-12-09T15:25:27.194Z,22.13
2023-12-09T15:28:32.019Z,22.24
2023-12-09T15:31:35.340Z,22.25
2023-12-09T15:34:39.647Z,22.30
2023-12-09T15:37:45.066Z,22.33
2023-12-09T15:40:48.458Z,22.35
2023-12-09T15:43:53.509Z,22.34
2023-12-09T15:46:57.549Z,22.35
2023-12-09T15:50:02.015Z,22.23
2023-12-09T15:53:05.493Z,22.13
2023-12-09T15:56:10.400Z,22.04
2023-12-09T15:59:15.235Z,22.00
2023-12-09T16:02:18.602Z,21.98
2023-12-09T16:14:19.067Z,21.90
2023-12-09T16:17:22.672Z,21.78
2023-12-09T16:20:26.005Z,21.81
2023-12-09T16:23:29.401Z,21.75
2023-12-09T16:26:34.875Z,21.78
2023-12-09T16:29:40.447Z,21.79
2023-12-09T16:32:43.841Z,21.76
2023-12-09T16:35:47.222Z,21.70
2023-12-09T16:38:50.438Z,21.60
2023-12-09T16:41:53.823Z,21.47
2023-12-09T16:44:59.151Z,21.39
2023-12-09T16:48:03.387Z,21.31
2023-12-09T16:51:07.229Z,21.37
2023-12-09T16:54:11.243Z,21.39
2023-12-09T16:57:17.102Z,21.38
2023-12-09T17:00:22.297Z,21.48
2023-12-09T17:03:26.138Z,21.70
2023-12-09T17:06:29.481Z,21.87
2023-12-09T17:09:33.802Z,22.02
2023-12-09T17:12:40.579Z,22.14
2023-12-09T17:15:47.250Z,22.15
2023-12-09T17:18:51.157Z,22.19
2023-12-09T17:21:54.527Z,22.20
2023-12-09T17:24:57.852Z,22.21
2023-12-09T17:28:01.203Z,22.15
2023-12-09T17:31:06.607Z,22.12
2023-12-09T17:34:11.744Z,22.13
2023-12-09T17:37:15.859Z,22.09
2023-12-09T17:40:19.755Z,22.06
2023-12-09T17:43:23.849Z,22.06
2023-12-09T17:46:29.243Z,21.71
2023-12-09T17:49:32.946Z,21.45
2023-12-09T17:52:38.475Z,21.27
2023-12-09T17:55:43.207Z,21.44
2023-12-09T17:58:49.255Z,21.60
2023-12-09T18:01:54.327Z,21.70
2023-12-09T18:04:58.027Z,21.73
2023-12-09T18:08:04.943Z,21.74
2023-12-09T18:11:08.668Z,21.82
2023-12-09T18:14:12.300Z,21.80
2023-12-09T18:17:17.203Z,21.83
2023-12-09T18:20:20.677Z,21.88
2023-12-09T18:23:24.156Z,21.55
2023-12-09T18:26:27.812Z,20.78
2023-12-09T18:29:31.620Z,20.41
2023-12-09T18:32:39.802Z,20.77
2023-12-09T18:35:43.647Z,21.14
2023-12-09T18:38:46.883Z,21.58
2023-12-09T18:41:50.109Z,21.90
2023-12-09T18:44:53.864Z,22.16
2023-12-09T18:47:58.723Z,22.30
2023-12-09T18:51:04.844Z,22.41
2023-12-09T18:54:08.906Z,22.46
2023-12-09T18:57:14.460Z,22.53
2023-12-09T19:00:17.888Z,22.57
2023-12-09T19:03:23.309Z,22.60
2023-12-09T19:06:26.729Z,22.63
2023-12-09T19:09:30.163Z,22.66
2023-12-09T19:12:33.534Z,22.62
2023-12-09T19:15:36.993Z,22.66
2023-12-09T19:18:41.869Z,22.69
2023-12-09T19:21:45.340Z,22.69
2023-12-09T19:24:49.023Z,22.74
2023-12-09T19:27:52.255Z,22.45
2023-12-09T19:30:55.564Z,22.69
2023-12-09T19:34:01.867Z,22.73
2023-12-09T19:37:05.690Z,22.79
2023-12-09T19:40:11.674Z,22.77
2023-12-09T19:43:17.775Z,22.78
2023-12-09T19:46:21.009Z,22.78
2023-12-09T19:49:26.155Z,22.75
2023-12-09T19:52:30.485Z,22.82
2023-12-09T19:55:37.669Z,22.66
2023-12-09T19:58:41.152Z,22.70
2023-12-09T20:01:44.469Z,22.66
2023-12-09T20:04:49.750Z,22.72
2023-12-09T20:07:53.111Z,22.70
2023-12-09T20:10:57.810Z,22.68
2023-12-09T20:14:01.112Z,22.78
2023-12-09T20:17:07.125Z,22.81
2023-12-09T20:20:12.988Z,22.82
2023-12-09T20:23:16.454Z,22.84
2023-12-09T20:26:19.793Z,22.86
2023-12-09T20:29:23.309Z,22.85
2023-12-09T20:32:27.132Z,22.85
2023-12-09T20:35:32.324Z,22.86
2023-12-09T20:38:36.261Z,22.85
2023-12-09T20:41:39.998Z,22.87
2023-12-09T20:44:44.562Z,22.89
2023-12-09T20:47:48.375Z,22.98
2023-12-09T20:50:54.621Z,22.81
2023-12-09T20:53:58.041Z,22.79
2023-12-09T20:57:03.292Z,22.70
2023-12-09T21:00:09.775Z,22.78
2023-12-09T21:03:13.324Z,22.83
2023-12-09T21:06:18.314Z,22.83
2023-12-09T21:09:23.703Z,22.80
2023-12-09T21:12:27.101Z,22.77
2023-12-09T21:15:30.542Z,22.70
2023-12-09T21:18:33.975Z,22.72
2023-12-09T21:21:38.553Z,22.74
2023-12-09T21:24:41.954Z,22.73
2023-12-09T21:27:45.618Z,22.75
2023-12-09T21:30:48.990Z,22.72
2023-12-09T21:33:53.397Z,22.75
2023-12-09T21:36:58.009Z,22.74
2023-12-09T21:40:01.612Z,22.73
2023-12-09T21:43:05.476Z,22.75
2023-12-09T21:46:08.627Z,22.72
2023-12-09T21:49:12.071Z,22.73
2023-12-09T21:52:16.882Z,22.78
2023-12-09T21:55:21.087Z,22.63
2023-12-09T21:58:24.378Z,22.43
2023-12-09T22:01:27.494Z,22.33
2023-12-09T22:04:30.681Z,22.25
2023-12-09T22:07:35.349Z,22.20
2023-12-09T22:10:38.980Z,22.17
2023-12-09T22:13:42.728Z,22.14
2023-12-09T22:16:46.186Z,22.11
2023-12-09T22:19:49.299Z,22.09
2023-12-09T22:22:55.706Z,22.07
2023-12-09T22:25:59.379Z,22.06
2023-12-09T22:29:02.666Z,22.04
2023-12-09T22:32:06.535Z,22.03
2023-12-09T22:35:10.396Z,22.02
2023-12-09T22:38:15.313Z,22.01
2023-12-09T22:41:22.749Z,21.99
2023-12-09T22:44:25.875Z,21.99
2023-12-09T22:47:30.167Z,21.97
2023-12-09T22:50:33.431Z,21.96
2023-12-09T22:53:37.960Z,21.95
2023-12-09T22:56:41.139Z,21.94
2023-12-09T22:59:45.518Z,21.92
2023-12-09T23:02:48.664Z,21.91
2023-12-09T23:05:51.756Z,21.88
2023-12-09T23:08:56.331Z,21.88
2023-12-09T23:11:59.590Z,21.88
2023-12-09T23:15:02.881Z,21.88
2023-12-09T23:18:06.312Z,21.87
2023-12-09T23:21:10.210Z,21.86
2023-12-09T23:24:14.994Z,21.86
2023-12-09T23:27:18.152Z,21.87
2023-12-09T23:30:21.382Z,21.87
2023-12-09T23:33:24.817Z,21.86
2023-12-09T23:36:28.172Z,21.84
2023-12-09T23:39:32.890Z,21.84
2023-12-09T23:42:36.151Z,21.83
2023-12-09T23:45:39.518Z,21.85
2023-12-09T23:48:42.842Z,21.83
2023-12-09T23:51:46.040Z,21.81
2023-12-09T23:54:50.623Z,21.80
2023-12-09T23:57:53.842Z,21.78
